Time;durP1;ratioP1;P1;durP2;ratioP2;P2;SDS_P1;SDS_P2;PMS_P1;PMS_P2;Temp;Humidity;BMP_temperature;BMP_pressure;BME280_temperature;BME280_humidity;BME280_pressure;Samples;Min_cycle;Max_cycle;Signal;HPM_P1;HPM_P2
2021/09/25 00:00:21;;;;;;;15.10;6.28;;;20.40;99.90;;;20.74;73.45;101404.19;4957030;29;20078;-74
2021/09/25 00:02:49;;;;;;;13.68;6.05;;;20.40;99.90;;;20.43;73.58;101348.88;4957007;29;20039;-74
2021/09/25 00:05:19;;;;;;;12.10;6.03;;;20.30;99.90;;;20.82;73.82;101419.09;4957133;29;20046;-74
2021/09/25 00:07:47;;;;;;;15.20;5.90;;;20.30;99.90;;;20.79;73.69;101418.34;4956202;28;20055;-75
2021/09/25 00:10:16;;;;;;;12.90;5.75;;;20.30;99.90;;;20.81;73.72;101414.66;4956764;29;20036;-74
2021/09/25 00:12:45;;;;;;;14.30;5.60;;;20.30;99.90;;;20.78;73.72;101416.56;4956668;29;20043;-74
2021/09/25 00:15:14;;;;;;;9.98;5.47;;;20.30;99.90;;;20.76;73.71;101416.63;4957018;29;20047;-74
2021/09/25 00:17:42;;;;;;;15.27;5.90;;;20.30;99.90;;;20.54;73.72;101391.47;4956627;29;20083;-74
2021/09/25 00:20:12;;;;;;;14.60;6.22;;;20.20;99.90;;;20.58;73.88;101420.88;4956618;29;20039;-74
2021/09/25 00:22:42;;;;;;;12.05;5.63;;;20.10;99.90;;;20.61;74.17;101414.53;4956805;29;20394;-74
2021/09/25 00:25:12;;;;;;;14.20;6.45;;;20.10;99.90;;;20.53;74.19;101417.50;4956749;29;20051;-74
2021/09/25 00:27:40;;;;;;;10.82;5.85;;;20.10;99.90;;;20.50;74.05;101417.59;4956311;29;20047;-74
2021/09/25 00:30:11;;;;;;;12.07;6.22;;;20.10;99.90;;;20.46;74.08;101412.41;4956589;29;20481;-74
2021/09/25 00:32:41;;;;;;;12.73;6.50;;;20.00;99.90;;;20.45;73.83;101414.22;4957079;29;20055;-74
2021/09/25 00:35:11;;;;;;;13.27;6.93;;;20.00;99.90;;;20.28;73.78;101388.88;4956210;29;20078;-74
2021/09/25 00:37:42;;;;;;;17.52;7.13;;;19.90;99.90;;;20.34;74.01;101418.22;4956211;29;20048;-74
2021/09/25 00:40:13;;;;;;;11.13;6.95;;;19.90;99.90;;;20.22;74.01;101410.59;4956473;29;20051;-74
2021/09/25 00:42:42;;;;;;;16.42;7.10;;;19.80;99.90;;;20.23;73.84;101415.91;4956217;29;20108;-74
2021/09/25 00:45:11;;;;;;;15.90;7.88;;;19.80;99.90;;;20.22;74.03;101413.28;4954959;29;20474;-74
2021/09/25 00:47:40;;;;;;;14.55;8.02;;;19.70;99.90;;;20.17;74.12;101421.44;4956207;29;20102;-74
2021/09/25 00:50:10;;;;;;;14.50;8.45;;;19.70;99.90;;;20.07;74.23;101417.34;4956236;29;20568;-74
2021/09/25 00:52:39;;;;;;;16.15;8.45;;;19.70;99.90;;;20.08;74.62;101415.53;4956506;29;20051;-74
2021/09/25 00:55:10;;;;;;;16.65;8.27;;;19.60;99.90;;;20.14;74.48;101424.25;4938815;29;20476;-74
2021/09/25 00:57:39;;;;;;;17.75;9.07;;;19.70;99.90;;;20.11;74.47;101418.97;4956428;29;20075;-74
2021/09/25 01:00:09;;;;;;;13.63;8.57;;;19.60;99.90;;;20.03;74.66;101418.38;4955217;29;20057;-74
2021/09/25 01:02:38;;;;;;;16.00;8.85;;;19.60;99.90;;;20.02;74.75;101419.31;4956059;29;20070;-74
2021/09/25 01:05:08;;;;;;;14.68;8.95;;;19.60;99.90;;;19.96;74.82;101410.56;4956092;29;20047;-74
2021/09/25 01:07:36;;;;;;;14.20;8.93;;;19.60;99.90;;;19.93;74.73;101402.63;4955965;29;20047;-74
2021/09/25 01:10:06;;;;;;;18.05;9.43;;;19.60;99.90;;;20.05;74.72;101418.31;4955657;29;20043;-74
2021/09/25 01:12:36;;;;;;;18.23;9.05;;;19.60;99.90;;;20.00;74.86;101421.16;4954754;29;20051;-74
2021/09/25 01:15:07;;;;;;;16.30;9.07;;;19.50;99.90;;;19.90;75.09;101413.50;4955476;29;20054;-74
2021/09/25 01:17:35;;;;;;;;;;;19.50;99.90;;;19.50;74.92;101346.81;4956104;29;20122;-73
2021/09/25 01:20:05;;;;;;;13.80;9.60;;;19.50;99.90;;;19.91;75.07;101421.50;4953744;28;19926;-75
2021/09/25 01:22:35;;;;;;;13.95;8.88;;;19.40;99.90;;;19.62;75.14;101357.16;4955502;29;20039;-76
2021/09/25 01:25:06;;;;;;;18.63;9.55;;;19.50;99.90;;;19.96;75.11;101414.13;4955493;29;20054;-75
2021/09/25 01:27:35;;;;;;;17.90;9.90;;;19.50;99.90;;;19.71;75.31;101386.34;4955833;29;20043;-74
2021/09/25 01:30:07;;;;;;;14.70;9.27;;;19.40;99.90;;;19.84;75.52;101411.84;4955966;29;20055;-75
2021/09/25 01:32:35;;;;;;;13.95;8.52;;;19.40;99.90;;;19.88;75.40;101410.81;4955404;29;20058;-74
2021/09/25 01:35:05;;;;;;;15.73;9.85;;;19.40;99.90;;;19.89;75.55;101406.34;4955247;29;20094;-74
2021/09/25 01:37:35;;;;;;;14.60;9.43;;;19.40;99.90;;;19.81;75.75;101406.59;4955381;29;20094;-74
2021/09/25 01:40:09;;;;;;;16.47;8.80;;;19.40;99.90;;;19.84;75.58;101411.00;4955475;29;20121;-74
2021/09/25 01:42:38;;;;;;;16.23;9.95;;;19.40;99.90;;;19.88;75.52;101402.78;4955258;29;20046;-74
2021/09/25 01:45:08;;;;;;;13.45;8.80;;;19.40;99.90;;;19.85;75.53;101397.53;4955499;29;20126;-74
2021/09/25 01:47:39;;;;;;;;;;;19.40;99.90;;;19.84;75.44;101403.81;4955593;29;20047;-74
2021/09/25 01:50:10;;;;;;;;;;;19.40;99.90;;;19.87;75.48;101408.19;4955581;29;19923;-74
2021/09/25 01:52:41;;;;;;;16.30;9.27;;;19.50;99.90;;;19.90;75.55;101408.97;4955330;29;20340;-74
2021/09/25 01:55:12;;;;;;;15.65;8.80;;;19.40;99.90;;;19.91;75.72;101407.16;4955103;29;20078;-74
2021/09/25 01:57:40;;;;;;;18.10;8.38;;;19.40;99.90;;;19.93;75.39;101399.94;4955176;29;20438;-74
2021/09/25 02:00:11;;;;;;;15.15;8.80;;;19.50;99.90;;;19.93;75.51;101408.88;4955019;29;20058;-74
2021/09/25 02:02:40;;;;;;;17.33;9.05;;;19.50;99.90;;;19.99;75.35;101416.72;4955014;29;20047;-74
2021/09/25 02:05:11;;;;;;;17.38;8.88;;;19.50;99.90;;;19.98;75.35;101412.28;4954921;29;20079;-74
2021/09/25 02:07:41;;;;;;;14.57;8.52;;;19.50;99.90;;;19.80;75.55;101391.44;4955243;29;20083;-74
2021/09/25 02:10:10;;;;;;;17.63;9.60;;;19.50;99.90;;;19.74;75.63;101395.19;4955095;29;20059;-74
2021/09/25 02:12:39;;;;;;;15.25;8.88;;;19.50;99.90;;;19.94;75.73;101412.47;4953839;29;20110;-74
2021/09/25 02:15:10;;;;;;;19.63;9.80;;;19.50;99.90;;;19.87;76.02;101414.47;4954950;29;20163;-74
2021/09/25 02:17:38;;;;;;;15.70;9.18;;;19.40;99.90;;;19.85;76.05;101404.69;4954753;29;20047;-74
2021/09/25 02:20:11;;;;;;;14.60;9.25;;;19.50;99.90;;;19.89;76.04;101401.88;4955180;29;20071;-74
2021/09/25 02:22:42;;;;;;;14.85;9.05;;;19.40;99.90;;;19.84;76.22;101402.94;4954790;29;20494;-74
2021/09/25 02:25:11;;;;;;;16.33;9.60;;;19.40;99.90;;;19.85;76.29;101408.25;4955354;29;20047;-74
2021/09/25 02:27:41;;;;;;;19.20;9.52;;;19.40;99.90;;;19.79;76.49;101408.47;4954736;29;20128;-74
2021/09/25 02:30:15;;;;;;;18.10;9.40;;;19.40;99.90;;;19.75;76.72;101407.69;4954943;28;20047;-74
2021/09/25 02:32:45;;;;;;;14.55;8.70;;;19.30;99.90;;;19.74;76.88;101397.00;4958587;29;20521;-74
2021/09/25 02:35:17;;;;;;;19.58;9.80;;;19.20;99.90;;;19.77;76.78;101411.22;4958391;29;20082;-74
2021/09/25 02:37:47;;;;;;;18.15;9.05;;;19.30;99.90;;;19.72;77.17;101401.56;4958384;29;20540;-74
2021/09/25 02:40:18;;;;;;;15.60;9.70;;;19.30;99.90;;;19.66;77.01;101388.34;4958659;29;20058;-74
2021/09/25 02:42:48;;;;;;;19.13;8.95;;;19.30;99.90;;;19.74;77.22;101405.06;4958671;29;20094;-74
2021/09/25 02:45:17;;;;;;;17.70;9.90;;;19.30;99.90;;;19.77;77.31;101397.78;4958593;29;20402;-74
2021/09/25 02:47:46;;;;;;;16.65;10.57;;;19.30;99.90;;;19.79;77.15;101400.41;4958787;29;20133;-74
2021/09/25 02:50:18;;;;;;;13.30;9.68;;;19.30;99.90;;;19.73;77.25;101392.56;4958237;29;20050;-74
2021/09/25 02:52:48;;;;;;;13.70;9.82;;;19.30;99.90;;;19.71;77.70;101397.09;4941414;29;20059;-74
2021/09/25 02:55:18;;;;;;;15.40;9.52;;;19.30;99.90;;;19.65;77.73;101390.13;4958598;29;20043;-74
2021/09/25 02:57:47;;;;;;;17.30;9.80;;;19.30;99.90;;;19.68;77.95;101397.22;4958257;29;20047;-74
2021/09/25 03:00:20;;;;;;;18.48;10.57;;;19.20;99.90;;;19.69;77.94;101404.31;4941051;29;20121;-74
2021/09/25 03:02:50;;;;;;;18.92;10.60;;;19.30;99.90;;;19.70;78.08;101392.69;4958332;29;20077;-74
2021/09/25 03:05:19;;;;;;;17.02;11.05;;;19.30;99.90;;;19.48;78.19;101365.66;4958203;29;20557;-74
2021/09/25 03:07:49;;;;;;;17.20;10.80;;;19.30;99.90;;;19.61;78.39;101393.84;4957864;29;20126;-74
2021/09/25 03:10:17;;;;;;;19.55;11.15;;;19.20;99.90;;;19.64;78.49;101387.50;4958202;29;20043;-74
2021/09/25 03:12:46;;;;;;;19.42;11.82;;;19.30;99.90;;;19.65;78.65;101397.28;4940778;29;20519;-74
2021/09/25 03:15:15;;;;;;;23.45;11.27;;;19.30;99.90;;;19.67;78.58;101395.44;4957555;29;20039;-75
2021/09/25 03:17:43;;;;;;;23.00;12.05;;;19.20;99.90;;;19.66;78.67;101393.69;4958221;29;20039;-74
2021/09/25 03:20:13;;;;;;;19.95;10.93;;;19.20;99.90;;;19.67;78.56;101382.03;4958051;29;20134;-74
2021/09/25 03:22:42;;;;;;;20.52;11.43;;;19.20;99.90;;;19.71;78.65;101392.63;4957675;29;20047;-74
2021/09/25 03:25:14;;;;;;;19.45;11.23;;;19.30;99.90;;;19.75;78.55;101398.75;4957616;29;20482;-74
2021/09/25 03:27:44;;;;;;;20.45;11.57;;;19.30;99.90;;;19.73;78.71;101405.97;4958089;29;20051;-74
2021/09/25 03:30:14;;;;;;;16.20;11.23;;;19.20;99.90;;;19.69;78.87;101397.16;4956650;29;20442;-74
2021/09/25 03:32:42;;;;;;;19.17;12.35;;;19.20;99.90;;;19.65;79.03;101391.94;4956530;29;20106;-75
2021/09/25 03:35:11;;;;;;;20.38;12.90;;;19.30;99.90;;;19.69;78.85;101394.47;4957598;29;20059;-74
2021/09/25 03:37:40;;;;;;;22.80;13.85;;;19.30;99.90;;;19.69;79.06;101397.16;4957362;29;20409;-74
2021/09/25 03:40:12;;;;;;;24.65;14.18;;;19.30;99.90;;;19.52;79.03;101363.75;4957602;29;20118;-74
2021/09/25 03:42:40;;;;;;;24.88;14.48;;;19.20;99.90;;;19.65;79.33;101395.50;4956615;28;20078;-74
2021/09/25 03:45:09;;;;;;;24.92;15.18;;;19.20;99.90;;;19.64;79.29;101385.72;4957789;29;20074;-74
2021/09/25 03:47:38;;;;;;;24.70;15.57;;;19.20;99.90;;;19.71;79.20;101391.72;4957697;29;20047;-74
2021/09/25 03:50:07;;;;;;;24.73;15.50;;;19.20;99.90;;;19.68;79.52;101395.41;4957116;29;20556;-74
2021/09/25 03:52:36;;;;;;;25.10;15.82;;;19.20;99.90;;;19.69;79.59;101393.59;4957006;29;20047;-75
2021/09/25 03:55:05;;;;;;;23.08;16.35;;;19.20;99.90;;;19.72;79.48;101398.88;4957258;29;20043;-75
2021/09/25 03:57:35;;;;;;;24.33;16.27;;;19.20;99.90;;;19.70;79.55;101401.59;4957483;29;20133;-75
2021/09/25 04:00:05;;;;;;;26.17;16.80;;;19.20;99.90;;;19.68;79.34;101375.75;4957468;29;20071;-75
2021/09/25 04:02:33;;;;;;;29.67;17.55;;;19.30;99.90;;;19.75;79.40;101399.63;4957244;29;20102;-74
2021/09/25 04:05:02;;;;;;;27.73;17.92;;;19.30;99.90;;;19.58;79.55;101368.91;4957324;29;20053;-74
2021/09/25 04:07:30;;;;;;;29.83;17.15;;;19.30;99.90;;;19.72;79.58;101390.81;4956844;29;20105;-75
2021/09/25 04:10:00;;;;;;;31.02;18.30;;;19.30;99.90;;;19.75;79.81;101398.75;4956965;29;20039;-74
2021/09/25 04:12:28;;;;;;;29.90;17.63;;;19.20;99.90;;;19.76;79.92;101397.84;4956678;29;20516;-74
2021/09/25 04:14:58;;;;;;;27.70;18.20;;;19.30;99.90;;;19.81;79.74;101406.59;4956943;29;20363;-74
2021/09/25 04:17:26;;;;;;;30.83;17.87;;;19.30;99.90;;;19.80;79.83;101408.41;4956718;29;20047;-74
2021/09/25 04:19:54;;;;;;;33.40;18.35;;;19.30;99.90;;;19.83;79.72;101396.69;4956539;29;20505;-74
2021/09/25 04:22:23;;;;;;;33.42;17.65;;;19.40;99.90;;;19.75;80.06;101401.44;4956556;29;20039;-74
2021/09/25 04:24:51;;;;;;;28.50;16.92;;;19.30;99.90;;;19.70;80.00;101381.94;4956356;29;20071;-74
2021/09/25 04:27:19;;;;;;;28.63;16.63;;;19.30;99.90;;;19.73;80.04;101389.88;4956713;29;20051;-74
2021/09/25 04:29:48;;;;;;;30.52;17.70;;;19.30;99.90;;;19.78;80.25;101388.78;4956304;29;20472;-75
2021/09/25 04:32:17;;;;;;;31.40;17.80;;;19.30;99.90;;;19.78;80.22;101394.16;4956383;29;20157;-74
2021/09/25 04:34:46;;;;;;;35.27;18.23;;;19.30;99.90;;;19.86;80.20;101387.66;4955237;29;20544;-75
2021/09/25 04:37:14;;;;;;;30.40;18.88;;;19.40;99.90;;;19.88;80.05;101383.97;4956052;29;20466;-75
2021/09/25 04:39:42;;;;;;;32.03;18.33;;;19.40;99.90;;;19.88;80.11;101391.19;4956317;29;20051;-74
2021/09/25 04:42:11;;;;;;;33.33;18.85;;;19.40;99.90;;;19.84;80.16;101389.53;4955984;29;20462;-74
2021/09/25 04:44:39;;;;;;;36.78;20.33;;;19.40;99.90;;;19.88;80.14;101394.72;4956476;29;20047;-74
2021/09/25 04:47:08;;;;;;;34.25;19.30;;;19.40;99.90;;;19.79;80.21;101368.19;4956040;29;20043;-75
2021/09/25 04:49:38;;;;;;;35.60;19.13;;;19.40;99.90;;;19.92;80.30;101391.00;4956250;29;20044;-74
2021/09/25 04:52:07;;;;;;;29.50;19.33;;;19.50;99.90;;;19.91;80.10;101383.88;4955977;29;20497;-75
2021/09/25 04:54:35;;;;;;;32.95;20.10;;;19.50;99.90;;;19.92;80.30;101388.31;4955964;28;20291;-74
2021/09/25 04:57:05;;;;;;;32.25;20.58;;;19.50;99.90;;;19.85;80.47;101384.09;4956070;29;20051;-74
2021/09/25 04:59:33;;;;;;;36.83;19.10;;;19.40;99.90;;;19.82;80.83;101394.06;4955791;29;20047;-74
2021/09/25 05:02:02;;;;;;;36.97;20.17;;;19.40;99.90;;;19.80;81.07;101386.06;4956063;29;20055;-74
2021/09/25 05:04:31;;;;;;;37.55;18.75;;;19.40;99.90;;;19.81;81.21;101385.13;4955782;29;20066;-75
2021/09/25 05:07:01;;;;;;;47.08;20.42;;;19.40;99.90;;;19.68;81.56;101365.00;4956012;29;20051;-74
2021/09/25 05:09:29;;;;;;;32.33;20.10;;;19.40;99.90;;;19.80;81.49;101392.28;4955676;29;20043;-75
2021/09/25 05:11:57;;;;;;;40.78;20.90;;;19.30;99.90;;;19.81;81.60;101390.50;4956131;29;20401;-75
2021/09/25 05:14:26;;;;;;;41.08;20.35;;;19.30;99.90;;;19.84;81.59;101389.53;4955569;29;20071;-75
2021/09/25 05:16:55;;;;;;;35.65;20.20;;;19.40;99.90;;;19.85;81.56;101392.16;4955856;29;20077;-75
2021/09/25 05:19:24;;;;;;;37.13;20.08;;;19.40;99.90;;;19.75;81.63;101374.59;4938345;29;20092;-75
2021/09/25 05:21:52;;;;;;;42.28;21.52;;;19.40;99.90;;;19.64;81.82;101356.19;4955444;29;20126;-74
2021/09/25 05:24:22;;;;;;;44.65;20.58;;;19.40;99.90;;;19.86;81.98;101391.19;4938431;29;20051;-75
2021/09/25 05:26:51;;;;;;;41.15;20.33;;;19.40;99.90;;;19.88;81.82;101380.44;4955417;29;20083;-75
2021/09/25 05:29:19;;;;;;;40.67;20.73;;;19.40;99.90;;;19.96;81.50;101392.66;4955568;29;20071;-75
2021/09/25 05:31:47;;;;;;;40.50;20.80;;;19.50;99.90;;;19.92;81.48;101396.38;4955258;29;20082;-75
2021/09/25 05:34:16;;;;;;;40.75;20.65;;;19.50;99.90;;;19.92;81.82;101393.69;4955424;29;20046;-75
2021/09/25 05:36:44;;;;;;;37.53;20.77;;;19.50;99.90;;;19.94;81.53;101394.50;4954126;29;20437;-75
2021/09/25 05:39:13;;;;;;;46.28;22.08;;;19.50;99.90;;;19.98;81.43;101401.53;4938407;29;20132;-75
2021/09/25 05:41:42;;;;;;;38.22;20.27;;;19.50;99.90;;;19.97;81.44;101397.09;4955221;29;20094;-75
2021/09/25 05:44:11;;;;;;;41.00;22.17;;;19.50;99.90;;;20.03;81.34;101391.53;4955064;29;20043;-75
2021/09/25 05:46:39;;;;;;;38.95;20.70;;;19.60;99.90;;;20.05;81.20;101400.41;4955058;29;20094;-75
2021/09/25 05:49:08;;;;;;;43.33;21.58;;;19.60;99.90;;;20.05;81.27;101411.16;4955013;29;20044;-75
2021/09/25 05:51:37;;;;;;;38.30;21.45;;;19.60;99.90;;;20.07;81.25;101403.91;4955601;29;20051;-75
2021/09/25 05:54:05;;;;;;;48.08;21.98;;;19.60;99.90;;;20.09;81.20;101407.41;4954867;29;20047;-74
2021/09/25 05:56:34;;;;;;;40.30;21.65;;;19.60;99.90;;;20.04;81.25;101393.25;4955024;29;20716;-74
2021/09/25 05:59:04;;;;;;;42.10;22.17;;;19.60;99.90;;;20.09;81.13;101396.66;4954967;29;20078;-74
2021/09/25 06:01:32;;;;;;;41.38;21.38;;;19.60;99.90;;;20.07;81.43;101395.88;4955284;29;20094;-74
2021/09/25 06:04:01;;;;;;;42.65;23.52;;;19.60;99.90;;;20.07;81.58;101400.34;4954905;29;20386;-74
2021/09/25 06:06:30;;;;;;;47.17;23.13;;;19.60;99.90;;;20.01;81.49;101393.38;4959873;28;20043;-74
2021/09/25 06:08:58;;;;;;;43.15;23.70;;;19.60;99.90;;;20.04;81.68;101397.75;4961391;28;20401;-74
2021/09/25 06:11:27;;;;;;;45.88;24.67;;;19.60;99.90;;;20.09;81.40;101410.09;4960896;29;20046;-74
2021/09/25 06:13:55;;;;;;;48.05;23.65;;;19.60;99.90;;;20.07;81.43;101398.56;4961046;29;20375;-74
2021/09/25 06:16:25;;;;;;;49.78;24.33;;;19.60;99.90;;;20.10;81.39;101401.13;4961131;29;20054;-74
2021/09/25 06:18:54;;;;;;;47.05;24.65;;;19.60;99.90;;;20.15;81.37;101403.66;4961560;29;20062;-74
2021/09/25 06:21:22;;;;;;;46.38;24.42;;;19.70;99.90;;;20.10;81.44;101406.50;4961183;29;20058;-74
2021/09/25 06:23:51;;;;;;;50.70;26.00;;;19.60;99.90;;;20.09;81.56;101415.47;4960205;29;20532;-74
2021/09/25 06:26:19;;;;;;;51.28;26.17;;;19.60;99.90;;;20.02;81.65;101392.44;4961091;29;20505;-74
2021/09/25 06:28:47;;;;;;;53.55;25.67;;;19.60;99.90;;;19.97;82.09;101415.91;4961126;29;20055;-74
2021/09/25 06:31:18;;;;;;;55.20;25.85;;;19.50;99.90;;;19.93;82.40;101416.06;4961046;29;20041;-74
2021/09/25 06:33:48;;;;;;;58.85;27.45;;;19.50;99.90;;;19.88;82.57;101415.34;4961201;28;20051;-74
2021/09/25 06:36:16;;;;;;;59.07;28.13;;;19.50;99.90;;;19.85;82.85;101410.06;4962026;28;20441;-75
2021/09/25 06:38:45;;;;;;;60.38;26.92;;;19.40;99.90;;;19.85;82.97;101416.31;4960948;28;20318;-75
2021/09/25 06:41:13;;;;;;;59.33;28.23;;;19.40;99.90;;;19.83;83.19;101417.28;4961292;28;20102;-75
2021/09/25 06:43:42;;;;;;;59.15;27.58;;;19.40;99.90;;;19.84;83.42;101417.22;4959783;28;20047;-74
2021/09/25 06:46:11;;;;;;;56.88;27.20;;;19.40;99.90;;;19.86;83.50;101420.75;4960607;29;20566;-74
2021/09/25 06:48:40;;;;;;;51.45;27.05;;;19.40;99.90;;;19.81;83.68;101425.41;4960827;29;20043;-74
2021/09/25 06:51:09;;;;;;;54.63;29.00;;;19.40;99.90;;;19.81;83.69;101425.41;4961322;29;20126;-74
2021/09/25 06:53:38;;;;;;;60.58;29.45;;;19.40;99.90;;;19.79;84.13;101421.88;4961449;29;20055;-75
2021/09/25 06:56:06;;;;;;;55.10;28.83;;;19.30;99.90;;;19.79;84.25;101420.09;4960851;29;20039;-74
2021/09/25 06:58:35;;;;;;;55.53;27.67;;;19.30;99.90;;;19.83;84.39;101419.97;4960695;29;20062;-75
2021/09/25 07:01:03;;;;;;;53.15;28.05;;;19.30;99.90;;;19.78;84.55;101409.41;4960677;29;20373;-76
2021/09/25 07:03:32;;;;;;;55.78;28.38;;;19.40;99.90;;;19.72;84.84;101409.59;4960755;29;20055;-74
2021/09/25 07:06:01;;;;;;;57.60;29.48;;;19.30;99.90;;;19.83;84.69;101418.19;4961270;29;20047;-75
2021/09/25 07:08:31;;;;;;;51.90;28.45;;;19.40;99.90;;;19.80;85.03;101418.28;4961285;28;20043;-75
2021/09/25 07:10:59;;;;;;;55.70;27.75;;;19.40;99.90;;;19.84;85.22;101411.84;4960769;28;20094;-75
2021/09/25 07:13:27;;;;;;;55.72;27.73;;;19.40;99.90;;;19.91;84.98;101421.50;4960516;29;20151;-75
2021/09/25 07:15:56;;;;;;;51.30;27.33;;;19.40;99.90;;;19.92;84.81;101423.22;4959412;29;20058;-75
2021/09/25 07:18:24;;;;;;;48.03;26.67;;;19.50;99.90;;;19.92;84.87;101420.53;4957611;29;20085;-74
2021/09/25 07:20:52;;;;;;;46.72;27.40;;;19.40;99.90;;;19.98;84.69;101422.13;4957643;29;20453;-75
2021/09/25 07:23:22;;;;;;;50.95;27.02;;;19.50;99.90;;;19.95;84.61;101420.44;4957380;29;20445;-75
2021/09/25 07:25:52;;;;;;;50.90;27.10;;;19.60;99.90;;;19.92;84.62;101425.91;4957530;29;20122;-75
2021/09/25 07:28:20;;;;;;;52.90;26.10;;;19.60;99.90;;;19.92;84.93;101433.97;4957556;29;20451;-75
2021/09/25 07:30:49;;;;;;;51.08;26.00;;;19.50;99.90;;;19.91;85.29;101434.03;4957405;29;20090;-75
2021/09/25 07:33:18;;;;;;;52.40;25.85;;;19.50;99.90;;;19.93;85.51;101435.75;4940405;29;20401;-75
2021/09/25 07:35:47;;;;;;;51.40;25.38;;;19.50;99.90;;;19.91;85.61;101437.59;4956388;29;20461;-75
2021/09/25 07:38:15;;;;;;;49.78;26.38;;;19.50;99.90;;;19.92;85.93;101447.41;4957579;29;20130;-76
2021/09/25 07:40:43;;;;;;;51.33;26.60;;;19.50;99.90;;;19.90;85.77;101443.88;4957565;29;20102;-75
2021/09/25 07:43:13;;;;;;;53.35;25.77;;;19.50;99.90;;;19.99;85.58;101448.97;4957660;29;20537;-75
2021/09/25 07:45:42;;;;;;;55.90;27.67;;;19.50;99.90;;;19.88;85.45;101452.94;4957453;29;20055;-75
2021/09/25 07:48:10;;;;;;;55.22;26.98;;;19.50;99.90;;;19.90;85.42;101460.00;4940401;29;20079;-75
2021/09/25 07:50:39;;;;;;;51.58;27.55;;;19.40;99.90;;;19.94;85.51;101453.59;4957051;29;20580;-75
2021/09/25 07:53:07;;;;;;;56.33;26.42;;;19.50;99.90;;;19.90;85.52;101460.00;4957060;29;20085;-75
2021/09/25 07:55:36;;;;;;;56.38;26.92;;;19.50;99.90;;;19.97;85.49;101458.88;4956858;29;20106;-76
2021/09/25 07:58:05;;;;;;;53.22;27.95;;;19.50;99.90;;;20.00;85.41;101463.25;4956743;29;20074;-75
2021/09/25 08:00:35;;;;;;;50.47;27.25;;;19.60;99.90;;;20.03;85.27;101469.44;4957189;29;20051;-75
2021/09/25 08:03:04;;;;;;;61.58;28.30;;;19.60;99.90;;;20.00;85.15;101468.63;4957240;29;20054;-75
2021/09/25 08:05:33;;;;;;;52.63;28.50;;;19.60;99.90;;;19.85;85.11;101442.28;4957096;29;20113;-75
2021/09/25 08:08:01;;;;;;;61.33;28.25;;;19.60;99.90;;;20.00;84.76;101461.44;4957521;29;20047;-75
2021/09/25 08:10:30;;;;;;;51.45;28.92;;;19.60;99.90;;;20.12;84.88;101485.22;4956605;29;20039;-75
2021/09/25 08:12:59;;;;;;;52.35;27.20;;;19.70;99.90;;;20.18;84.87;101492.19;4956748;29;20118;-75
2021/09/25 08:15:49;;;;;;;59.88;27.75;;;19.70;99.90;;;20.20;84.70;101488.56;4957024;29;20039;-75
2021/09/25 08:18:18;;;;;;;54.25;27.88;;;19.80;99.90;;;20.29;84.37;101500.78;4939562;29;20047;-75
2021/09/25 08:20:47;;;;;;;58.03;27.58;;;19.80;99.90;;;20.31;84.26;101502.50;4956592;29;20077;-75
2021/09/25 08:23:16;;;;;;;59.22;28.13;;;19.90;99.90;;;20.40;84.03;101495.94;4956452;29;20051;-75
2021/09/25 08:25:44;;;;;;;53.72;27.10;;;20.00;99.90;;;20.39;83.93;101500.44;4956771;29;20102;-75
2021/09/25 08:28:13;;;;;;;53.35;27.63;;;20.00;99.90;;;20.41;83.96;101509.31;4956485;28;20434;-75
2021/09/25 08:30:41;;;;;;;54.85;28.35;;;20.00;99.90;;;20.50;83.70;101514.38;4956400;29;20055;-75
2021/09/25 08:33:11;;;;;;;47.45;27.23;;;20.10;99.90;;;20.55;83.42;101516.91;4956352;29;20126;-75
2021/09/25 08:35:40;;;;;;;55.50;28.97;;;20.10;99.90;;;20.56;83.26;101521.34;4956597;29;20054;-75
2021/09/25 08:38:08;;;;;;;47.95;28.27;;;20.10;99.90;;;20.47;83.24;101513.59;4956442;29;20302;-75
2021/09/25 08:40:37;;;;;;;57.60;29.30;;;20.10;99.90;;;20.05;82.97;101454.13;4956227;29;20098;-75
2021/09/25 08:43:05;;;;;;;51.55;29.88;;;20.10;99.90;;;20.45;83.05;101523.53;4956169;29;20085;-75
2021/09/25 08:45:34;;;;;;;49.33;30.35;;;20.00;99.90;;;20.39;83.03;101524.63;4956650;29;20039;-75
2021/09/25 08:48:03;;;;;;;53.83;30.33;;;20.00;99.90;;;20.47;83.12;101524.34;4955960;29;20481;-75
2021/09/25 08:50:34;;;;;;;55.70;31.30;;;20.00;99.90;;;20.53;83.06;101527.72;4956075;29;20468;-75
2021/09/25 08:53:02;;;;;;;54.20;31.13;;;20.10;99.90;;;20.05;83.04;101427.28;4956563;29;20061;-75
2021/09/25 08:55:31;;;;;;;59.88;31.75;;;20.20;99.90;;;20.66;83.09;101520.97;4956213;29;20413;-75
2021/09/25 08:57:59;;;;;;;51.03;32.05;;;20.30;99.90;;;20.68;83.38;101521.81;4956123;29;20050;-75
2021/09/25 09:00:42;;;;;;;53.63;30.33;;;20.20;99.90;;;20.77;83.07;101522.41;4956530;29;20110;-75
2021/09/25 09:03:34;;;;;;;49.33;32.95;;;20.30;99.90;;;20.38;82.84;101454.81;4955964;29;20062;-75
2021/09/25 09:06:15;;;;;;;66.63;34.47;;;20.40;99.90;;;20.85;82.40;101539.16;4953163;29;20134;-75
2021/09/25 09:08:46;;;;;;;53.58;32.92;;;20.40;99.90;;;20.85;82.35;101536.47;4956263;29;20047;-75
2021/09/25 09:11:16;;;;;;;59.15;34.20;;;20.50;99.90;;;20.77;82.63;101550.16;4956281;29;20062;-75
2021/09/25 09:13:48;;;;;;;59.33;34.95;;;20.40;99.90;;;20.77;82.79;101539.41;4957097;29;20054;-75
2021/09/25 09:16:18;;;;;;;52.78;32.53;;;20.40;99.90;;;20.71;83.61;101523.50;4958524;29;20051;-75
2021/09/25 09:18:49;;;;;;;57.73;34.40;;;20.40;99.90;;;20.82;83.49;101544.63;4956371;29;20063;-75
2021/09/25 09:21:19;;;;;;;;;;;20.40;99.90;;;20.86;83.36;101540.88;4956522;29;20051;-75
2021/09/25 09:23:51;;;;;;;67.13;34.28;;;20.50;99.90;;;20.97;83.00;101530.63;4955529;29;19973;-75
2021/09/25 09:26:22;;;;;;;59.80;35.33;;;20.50;99.90;;;21.05;82.99;101534.81;4955885;29;20054;-75
2021/09/25 09:28:54;;;;;;;54.85;33.42;;;20.60;99.90;;;21.12;82.51;101540.84;4955525;29;20445;-75
2021/09/25 09:31:23;;;;;;;58.13;34.90;;;20.70;99.90;;;21.22;82.59;101542.25;4955697;29;20052;-76
2021/09/25 09:33:54;;;;;;;55.55;32.95;;;20.80;99.90;;;21.32;82.21;101523.03;4955633;29;20066;-75
2021/09/25 09:36:30;;;;;;;60.08;32.50;;;21.00;99.90;;;21.24;81.46;101511.66;4955580;29;20078;-75
2021/09/25 09:39:08;;;;;;;58.83;32.85;;;21.10;99.90;;;21.29;81.00;101527.66;4955259;29;20489;-75
2021/09/25 09:41:43;;;;;;;53.92;32.33;;;21.10;99.90;;;21.44;80.99;101537.84;4955037;29;20098;-75
2021/09/25 09:44:14;;;;;;;52.42;33.35;;;21.10;99.90;;;21.58;80.83;101545.38;4955004;29;20050;-75
2021/09/25 09:46:45;;;;;;;51.90;31.85;;;21.10;99.90;;;21.62;80.42;101531.75;4954978;29;20047;-75
2021/09/25 09:49:16;;;;;;;54.80;34.00;;;21.20;99.90;;;21.70;80.22;101540.38;4955066;29;20401;-75
2021/09/25 09:51:51;;;;;;;56.03;32.92;;;21.20;99.90;;;21.67;79.93;101518.97;4955293;29;20159;-75
2021/09/25 09:54:23;;;;;;;57.75;33.35;;;21.40;99.90;;;21.78;80.20;101523.91;4955054;29;20043;-75
2021/09/25 09:56:54;;;;;;;61.22;34.15;;;21.40;99.90;;;21.75;79.44;101543.78;4954977;29;20562;-75
2021/09/25 09:59:23;;;;;;;60.33;36.50;;;21.30;99.90;;;21.73;79.39;101553.75;4955108;29;20094;-75
2021/09/25 10:01:52;;;;;;;52.95;33.35;;;21.30;99.90;;;21.66;79.36;101549.50;4955146;29;20580;-75
2021/09/25 10:04:22;;;;;;;55.03;32.53;;;21.30;99.90;;;21.58;79.33;101546.25;4954843;29;20512;-75
2021/09/25 10:06:53;;;;;;;63.83;37.10;;;21.20;99.90;;;21.61;79.27;101540.75;4955429;29;20043;-75
2021/09/25 10:09:24;;;;;;;55.92;33.97;;;21.20;99.90;;;21.58;79.07;101529.22;4954904;29;20556;-75
2021/09/25 10:11:54;;;;;;;59.45;36.28;;;21.20;99.90;;;21.63;79.09;101520.03;4954787;29;20047;-75